Time;durP1;ratioP1;P1;durP2;ratioP2;P2;SDS_P1;SDS_P2;PMS_P1;PMS_P2;Temp;Humidity;BMP_temperature;BMP_pressure;BME280_temperature;BME280_humidity;BME280_pressure;Samples;Min_cycle;Max_cycle;Signal;HPM_P1;HPM_P2
2021/09/24 00:03:08;;;;;;;10.80;4.70;;;;;;;12.33;84.49;100449.91;8719106;33;20179;-72
2021/09/24 00:08:11;;;;;;;9.57;4.57;;;;;;;12.28;84.13;100436.84;8719623;33;20398;-72
2021/09/24 00:13:15;;;;;;;7.70;4.80;;;;;;;12.12;84.29;100444.50;8719421;33;20440;-72
2021/09/24 00:18:19;;;;;;;8.90;3.85;;;;;;;12.45;84.13;100439.91;8719106;33;20210;-72
2021/09/24 00:23:22;;;;;;;11.98;4.75;;;;;;;12.38;83.90;100436.91;8718659;33;20536;-72
2021/09/24 00:28:26;;;;;;;9.13;4.35;;;;;;;12.28;83.93;100435.97;8719138;33;20131;-72
2021/09/24 00:33:30;;;;;;;14.40;4.53;;;;;;;12.20;84.35;100427.69;8717899;33;20298;-72
2021/09/24 00:38:37;;;;;;;7.88;3.78;;;;;;;12.29;84.59;100427.78;8717805;33;20184;-72
2021/09/24 00:43:42;;;;;;;11.18;4.13;;;;;;;12.27;84.50;100427.03;8717955;33;20144;-72
2021/09/24 00:48:46;;;;;;;8.43;4.40;;;;;;;12.23;84.74;100425.63;8718658;33;20636;-72
2021/09/24 00:53:49;;;;;;;9.52;4.10;;;;;;;12.26;84.72;100417.25;8717966;33;20141;-73
2021/09/24 00:58:54;;;;;;;9.35;4.10;;;;;;;12.09;85.07;100417.84;8718101;33;20174;-72
2021/09/24 01:03:57;;;;;;;6.88;3.22;;;;;;;11.92;85.75;100419.31;8717667;33;20325;-72
2021/09/24 01:09:00;;;;;;;12.45;4.40;;;;;;;11.99;85.64;100414.28;8717807;33;20151;-72
2021/09/24 01:14:06;;;;;;;11.05;4.30;;;;;;;11.55;86.95;100411.72;8716848;33;20858;-72
2021/09/24 01:19:09;;;;;;;16.02;4.85;;;;;;;12.03;85.92;100410.31;8716906;33;21856;-72
2021/09/24 01:24:13;;;;;;;9.10;4.53;;;;;;;11.99;85.63;100416.97;8715446;33;20552;-72
2021/09/24 01:29:18;;;;;;;11.57;4.45;;;;;;;12.07;85.40;100409.94;8718153;33;20175;-73
2021/09/24 01:34:21;;;;;;;9.88;4.90;;;;;;;12.10;85.24;100423.13;8716079;33;20906;-72
2021/09/24 01:39:25;;;;;;;9.40;4.60;;;;;;;12.13;85.30;100424.69;8717092;33;20290;-72
2021/09/24 01:44:28;;;;;;;11.10;4.68;;;;;;;12.15;85.00;100412.81;8716144;33;20446;-73
2021/09/24 01:49:32;;;;;;;9.70;5.05;;;;;;;12.19;84.89;100418.78;8716035;33;20172;-72
2021/09/24 01:54:36;;;;;;;9.93;4.53;;;;;;;12.02;85.31;100424.78;8715672;33;20194;-72
2021/09/24 01:59:40;;;;;;;9.73;4.40;;;;;;;12.21;84.42;100422.19;8715740;33;20175;-73
2021/09/24 02:04:43;;;;;;;16.20;4.70;;;;;;;12.06;84.92;100426.22;8715811;33;20191;-72
2021/09/24 02:09:47;;;;;;;11.95;5.07;;;;;;;11.95;84.83;100422.59;8716200;33;20603;-73
2021/09/24 02:14:50;;;;;;;8.65;4.70;;;;;;;12.16;84.30;100421.75;8715838;33;20932;-72
2021/09/24 02:19:53;;;;;;;10.10;4.80;;;;;;;12.22;83.29;100429.28;8715823;33;20558;-72
2021/09/24 02:24:58;;;;;;;9.35;4.20;;;;;;;12.36;83.60;100425.41;8715453;33;20397;-73
2021/09/24 02:30:01;;;;;;;6.38;3.60;;;;;;;12.11;84.18;100427.50;8715471;33;20715;-73
2021/09/24 02:35:05;;;;;;;12.98;4.93;;;;;;;12.26;84.39;100421.78;8714972;33;20958;-72
2021/09/24 02:40:11;;;;;;;10.80;4.78;;;;;;;12.24;84.99;100426.47;8715417;33;20685;-73
2021/09/24 02:45:14;;;;;;;11.90;5.35;;;;;;;12.10;85.17;100438.44;8713459;33;20587;-73
2021/09/24 02:50:17;;;;;;;12.18;6.07;;;;;;;12.21;85.10;100435.66;8714152;33;20195;-73
2021/09/24 02:55:21;;;;;;;13.27;6.20;;;;;;;12.25;85.14;100420.94;8714747;33;21415;-73
2021/09/24 03:00:26;;;;;;;9.95;4.97;;;;;;;12.39;84.18;100428.66;8717827;33;20669;-73
2021/09/24 03:05:29;;;;;;;8.88;4.78;;;;;;;12.55;83.32;100425.47;8719885;33;20211;-73
2021/09/24 03:10:33;;;;;;;11.65;5.18;;;;;;;12.45;83.28;100413.84;8720025;33;20191;-73
2021/09/24 03:15:37;;;;;;;8.95;4.82;;;;;;;12.27;83.97;100427.03;8719356;33;20137;-73
2021/09/24 03:20:40;;;;;;;9.00;4.45;;;;;;;12.48;83.12;100420.75;8719821;33;20222;-73
2021/09/24 03:25:46;;;;;;;14.20;5.53;;;;;;;12.68;82.52;100419.84;8719524;33;20287;-73
2021/09/24 03:30:50;;;;;;;9.30;5.20;;;;;;;12.64;82.76;100420.25;8719501;33;20886;-73
2021/09/24 03:35:54;;;;;;;9.15;4.97;;;;;;;12.68;82.80;100430.63;8718008;33;20275;-73
2021/09/24 03:40:59;;;;;;;12.98;5.57;;;;;;;12.86;82.21;100428.13;8717700;33;20590;-73
2021/09/24 03:46:02;;;;;;;7.63;4.57;;;;;;;12.69;83.00;100439.56;8718720;33;20897;-73
2021/09/24 03:51:05;;;;;;;10.30;5.78;;;;;;;12.63;83.19;100429.34;8719088;33;20534;-73
2021/09/24 03:56:09;;;;;;;14.52;5.40;;;;;;;12.55;83.49;100433.56;8718485;33;20497;-73
2021/09/24 04:01:12;;;;;;;10.93;4.75;;;;;;;12.36;84.44;100428.09;8719016;33;20183;-73
2021/09/24 04:06:16;;;;;;;13.38;6.32;;;;;;;12.52;84.02;100430.28;8718749;33;20222;-73
2021/09/24 04:11:21;;;;;;;12.13;4.95;;;;;;;12.65;83.51;100441.69;8718964;33;20174;-73
2021/09/24 04:16:24;;;;;;;10.38;5.88;;;;;;;12.71;82.99;100440.28;8718808;33;20221;-73
2021/09/24 04:21:27;;;;;;;10.57;4.72;;;;;;;12.71;83.25;100435.75;8718454;33;20198;-73
2021/09/24 04:26:31;;;;;;;10.68;5.22;;;;;;;12.83;82.32;100429.28;8717983;33;20370;-73
2021/09/24 04:31:35;;;;;;;8.13;4.78;;;;;;;12.78;82.56;100433.34;8718054;33;20222;-73
2021/09/24 04:36:38;;;;;;;9.32;4.32;;;;;;;12.73;82.67;100438.31;8718414;33;20462;-73
2021/09/24 04:41:43;;;;;;;9.95;4.13;;;;;;;12.88;81.97;100436.94;8719148;33;20490;-73
2021/09/24 04:46:47;;;;;;;12.98;5.20;;;;;;;12.87;81.88;100437.94;8718256;33;20235;-73
2021/09/24 04:51:50;;;;;;;8.80;4.60;;;;;;;12.76;82.66;100438.03;8718412;33;20917;-73
2021/09/24 04:56:55;;;;;;;7.07;5.00;;;;;;;12.72;82.57;100433.91;8717917;33;20519;-73
2021/09/24 05:01:58;;;;;;;11.98;6.30;;;;;;;12.80;82.92;100437.63;8718147;33;20188;-73
2021/09/24 05:07:01;;;;;;;10.90;5.05;;;;;;;12.81;82.96;100435.78;8717832;33;20595;-73
2021/09/24 05:12:06;;;;;;;13.35;5.47;;;;;;;12.78;83.12;100444.13;8718610;33;20179;-73
2021/09/24 05:17:09;;;;;;;13.23;5.72;;;;;;;12.59;84.36;100442.25;8717377;33;20168;-73
2021/09/24 05:22:12;;;;;;;11.65;5.97;;;;;;;12.57;84.68;100439.69;8717205;33;20206;-73
2021/09/24 05:27:17;;;;;;;11.10;5.95;;;;;;;12.66;84.22;100439.84;8717120;33;20220;-75
2021/09/24 05:32:20;;;;;;;12.50;5.90;;;;;;;12.60;84.65;100439.41;8717352;33;20187;-73
2021/09/24 05:37:23;;;;;;;13.35;6.80;;;;;;;12.77;83.84;100437.91;8716817;33;20252;-73
2021/09/24 05:42:28;;;;;;;10.93;6.60;;;;;;;12.76;83.65;100444.28;8716690;33;20759;-73
2021/09/24 05:47:31;;;;;;;13.45;6.65;;;;;;;12.92;83.19;100445.63;8716687;33;20313;-73
2021/09/24 05:52:34;;;;;;;16.05;7.00;;;;;;;12.83;83.60;100441.88;8716728;33;20236;-73
2021/09/24 05:57:38;;;;;;;16.33;7.68;;;;;;;12.92;83.26;100438.38;8716007;33;20744;-73
2021/09/24 06:02:42;;;;;;;18.13;7.35;;;;;;;12.76;83.77;100436.19;8716712;33;20201;-73
2021/09/24 06:07:45;;;;;;;17.17;7.03;;;;;;;13.19;82.20;100423.34;8702287;33;20188;-74
2021/09/24 06:12:50;;;;;;;13.63;6.85;;;;;;;13.27;81.72;100423.50;8657296;33;20604;-74
2021/09/24 06:17:53;;;;;;;16.23;7.05;;;;;;;13.22;81.93;100421.25;8658640;33;20236;-76
2021/09/24 06:22:56;;;;;;;14.65;7.03;;;;;;;13.15;82.20;100425.50;8658122;33;20467;-72
2021/09/24 06:28:01;;;;;;;16.17;7.80;;;;;;;13.24;82.13;100431.88;8658019;33;20190;-73
2021/09/24 06:33:04;;;;;;;13.80;7.45;;;;;;;13.37;81.29;100424.41;8673338;33;20207;-73
2021/09/24 06:38:08;;;;;;;16.95;7.60;;;;;;;13.26;81.94;100427.22;8691942;33;20259;-73
2021/09/24 06:43:12;;;;;;;16.25;7.75;;;;;;;13.39;81.07;100433.22;8690579;33;20195;-73
2021/09/24 06:48:15;;;;;;;17.90;7.70;;;;;;;13.38;81.32;100431.50;8690443;33;20180;-73
2021/09/24 06:53:22;;;;;;;17.55;8.18;;;;;;;13.48;81.35;100428.81;8615083;33;20757;-73
2021/09/24 06:58:27;;;;;;;21.95;8.60;;;;;;;13.35;81.76;100444.38;8674999;33;20176;-73
2021/09/24 07:03:30;;;;;;;15.88;8.48;;;;;;;13.29;82.33;100437.72;8687372;33;20330;-73
2021/09/24 07:08:33;;;;;;;17.70;8.93;;;;;;;13.29;82.48;100443.09;8689647;33;20179;-73
2021/09/24 07:13:38;;;;;;;15.35;8.52;;;;;;;13.29;82.53;100443.09;8700021;33;20446;-73
2021/09/24 07:18:41;;;;;;;19.45;9.27;;;;;;;13.46;82.17;100437.03;8719906;33;20186;-73
2021/09/24 07:23:44;;;;;;;17.55;8.75;;;;;;;13.40;82.13;100447.56;8720294;33;20215;-73
2021/09/24 07:28:49;;;;;;;21.75;9.70;;;;;;;13.61;81.29;100444.72;8720889;33;20237;-73
2021/09/24 07:33:52;;;;;;;26.80;11.82;;;;;;;13.69;81.05;100436.75;8719526;33;20725;-74
2021/09/24 07:38:57;;;;;;;25.30;13.80;;;;;;;13.76;81.05;100443.28;8719002;33;20180;-73
2021/09/24 07:44:03;;;;;;;28.40;15.02;;;;;;;13.51;81.19;100447.41;8719768;33;20179;-73
2021/09/24 07:49:06;;;;;;;26.05;14.38;;;;;;;13.83;80.81;100444.41;8720550;33;20663;-73
2021/09/24 07:54:10;;;;;;;25.65;14.13;;;;;;;13.69;80.69;100444.88;8671432;33;20188;-73
2021/09/24 07:59:14;;;;;;;33.75;16.27;;;;;;;13.99;80.06;100451.06;8661838;33;20282;-73
2021/09/24 08:04:17;;;;;;;25.98;14.55;;;;;;;14.03;80.02;100447.94;8661633;33;20180;-73
2021/09/24 08:09:24;;;;;;;32.15;16.55;;;;;;;13.98;80.08;100461.00;8662117;33;20212;-73
2021/09/24 08:14:30;;;;;;;34.20;16.80;;;;;;;14.21;79.31;100461.56;8661236;33;20228;-73
2021/09/24 08:19:33;;;;;;;32.92;16.83;;;;;;;14.26;78.69;100464.66;8661325;33;20214;-74
2021/09/24 08:24:37;;;;;;;34.55;17.67;;;;;;;14.32;79.17;100464.06;8661158;33;20194;-74
2021/09/24 08:29:41;;;;;;;36.63;19.50;;;;;;;14.40;78.49;100454.41;8661511;33;20196;-74
2021/09/24 08:34:44;;;;;;;39.53;21.42;;;;;;;14.11;79.75;100464.25;8694226;33;20454;-73
2021/09/24 08:39:47;;;;;;;35.55;19.48;;;;;;;14.23;78.70;100470.34;8719518;33;20959;-73
2021/09/24 08:44:51;;;;;;;39.97;19.52;;;;;;;14.54;78.13;100460.19;8718918;33;20186;-73
2021/09/24 08:49:55;;;;;;;44.05;21.20;;;;;;;14.47;78.06;100466.34;8721929;33;20269;-73
2021/09/24 08:54:58;;;;;;;37.00;19.63;;;;;;;14.64;77.16;100460.13;8664485;33;21824;-73
2021/09/24 09:00:04;;;;;;;39.65;21.48;;;;;;;14.60;77.29;100456.03;8659758;33;20235;-73
2021/09/24 09:05:08;;;;;;;39.95;21.58;;;;;;;14.69;77.17;100457.00;8660153;33;21429;-73
2021/09/24 09:10:11;;;;;;;44.88;22.23;;;;;;;14.53;77.79;100461.16;8675833;33;20266;-73
2021/09/24 09:15:17;;;;;;;41.30;21.38;;;;;;;14.50;77.36;100449.81;8689092;33;22064;-73
2021/09/24 09:20:23;;;;;;;47.92;25.48;;;;;;;14.85;76.35;100450.94;8682047;33;20200;-74
2021/09/24 09:25:31;;;;;;;46.22;23.55;;;;;;;14.82;77.25;100460.22;8688088;33;20155;-73
2021/09/24 09:30:37;;;;;;;56.25;25.67;;;;;;;14.98;75.90;100459.56;8692216;33;21361;-74
2021/09/24 09:35:43;;;;;;;52.08;27.20;;;;;;;15.35;75.05;100461.34;8717113;33;20241;-73
2021/09/24 09:40:52;;;;;;;57.25;27.38;;;;;;;15.57;74.65;100460.88;8717063;33;20183;-73
2021/09/24 09:45:57;;;;;;;55.30;29.17;;;;;;;15.60;74.31;100457.84;8712775;33;20227;-73
2021/09/24 09:51:01;;;;;;;62.50;30.40;;;;;;;15.93;73.82;100450.88;8717441;33;20243;-73
2021/09/24 09:56:06;;;;;;;65.20;30.83;;;;;;;15.80;73.02;100444.16;8716427;33;21018;-73
2021/09/24 10:01:14;;;;;;;67.15;29.80;;;;;;;15.44;74.86;100447.75;8715374;33;20183;-73
2021/09/24 10:06:22;;;;;;;63.85;31.10;;;;;;;15.38;76.17;100426.69;8717082;33;20183;-73
2021/09/24 10:11:31;;;;;;;68.70;33.55;;;;;;;15.36;75.93;100425.13;8716785;33;20273;-73
2021/09/24 10:16:39;;;;;;;67.13;32.42;;;;;;;15.46;75.99;100426.75;8716242;33;20183;-73
2021/09/24 10:21:43;;;;;;;65.72;30.48;;;;;;;15.45;76.23;100430.47;8716760;33;20505;-73
2021/09/24 10:26:57;;;;;;;66.00;29.23;;;;;;;15.35;76.87;100434.25;8716222;33;20183;-73
2021/09/24 10:32:16;;;;;;;67.93;31.95;;;;;;;15.44;77.53;100444.16;8716764;33;20272;-73
2021/09/24 10:37:20;;;;;;;60.70;28.45;;;;;;;15.78;75.47;100435.34;8715972;33;20241;-73
2021/09/24 10:42:51;;;;;;;62.65;28.45;;;;;;;15.61;75.80;100437.06;8714684;33;20192;-73
2021/09/24 10:48:06;;;;;;;62.33;28.17;;;;;;;15.51;76.60;100431.72;8715891;33;20530;-73
2021/09/24 10:53:16;;;;;;;65.55;31.00;;;;;;;15.45;77.18;100426.94;8715624;33;20286;-72
2021/09/24 10:58:39;;;;;;;61.80;27.17;;;;;;;15.30;77.73;100425.72;8715601;33;20600;-72
2021/09/24 11:03:55;;;;;;;64.35;28.60;;;;;;;15.20;78.42;100423.09;8715036;33;20623;-72
2021/09/24 11:09:00;;;;;;;59.80;25.17;;;;;;;15.24;78.54;100433.44;8715344;33;20191;-72
2021/09/24 11:14:33;;;;;;;62.30;26.05;;;;;;;15.11;79.17;100427.59;8714940;33;20149;-73
2021/09/24 11:19:44;;;;;;;69.60;29.45;;;;;;;15.17;79.51;100437.78;8715664;33;20672;-73
2021/09/24 11:25:06;;;;;;;53.55;20.70;;;;;;;14.81;81.42;100426.06;8720113;33;20545;-73
2021/09/24 11:30:19;;;;;;;57.70;23.45;;;;;;;14.52;84.18;100426.19;8720447;33;20241;-73
2021/09/24 11:35:31;;;;;;;61.65;26.52;;;;;;;14.14;86.28;100430.69;8719627;33;20188;-73
2021/09/24 11:40:36;;;;;;;64.43;25.50;;;;;;;14.09;86.54;100428.44;8718451;33;20635;-73
2021/09/24 11:45:41;;;;;;;58.60;26.92;;;;;;;14.42;84.78;100422.69;8719248;33;20158;-73
2021/09/24 11:50:46;;;;;;;72.47;29.40;;;;;;;14.66;83.43;100428.41;8719095;33;20183;-73
2021/09/24 11:55:50;;;;;;;82.97;31.50;;;;;;;14.36;84.36;100432.19;8675523;33;20157;-73
2021/09/24 12:00:56;;;;;;;81.47;34.47;;;;;;;13.97;86.34;100428.75;8703785;33;20592;-73
2021/09/24 12:06:02;;;;;;;77.03;27.95;;;;;;;14.15;84.98;100427.88;8718459;33;20601;-73
2021/09/24 12:11:09;;;;;;;79.47;33.55;;;;;;;14.20;84.42;100426.56;8719040;33;20183;-73
2021/09/24 12:16:17;;;;;;;76.40;29.23;;;;;;;14.46;82.20;100427.66;8718492;33;20668;-73
2021/09/24 12:21:26;;;;;;;80.55;31.90;;;;;;;14.30;82.76;100417.44;8718670;33;20278;-74
2021/09/24 12:26:35;;;;;;;70.80;34.03;;;;;;;14.62;81.53;100420.72;8716571;33;20628;-72
2021/09/24 12:31:43;;;;;;;75.15;32.22;;;;;;;14.61;81.30;100425.28;8717220;33;20201;-73
2021/09/24 12:36:57;;;;;;;66.38;28.67;;;;;;;14.63;81.07;100420.59;8717583;33;20191;-73
2021/09/24 12:42:04;;;;;;;71.93;31.00;;;;;;;14.58;80.99;100406.66;8690697;33;20195;-73
2021/09/24 12:47:07;;;;;;;71.50;30.02;;;;;;;14.69;80.52;100411.88;8663410;33;20538;-73
2021/09/24 12:52:12;;;;;;;68.47;30.52;;;;;;;14.78;80.10;100408.28;8660105;33;20771;-73
2021/09/24 12:57:17;;;;;;;63.10;30.45;;;;;;;15.03;78.99;100408.56;8659390;33;20200;-73
2021/09/24 13:02:20;;;;;;;61.63;26.50;;;;;;;15.25;77.37;100401.84;8658690;33;20184;-73
2021/09/24 13:07:29;;;;;;;63.03;29.40;;;;;;;15.34;77.86;100395.53;8659285;33;20175;-72
2021/09/24 13:12:34;;;;;;;53.42;26.80;;;;;;;15.19;77.34;100389.78;8700148;33;20900;-73
2021/09/24 13:17:38;;;;;;;60.47;28.10;;;;;;;15.54;76.92;100390.78;8715729;33;20221;-72
2021/09/24 13:22:42;;;;;;;49.55;25.33;;;;;;;16.01;75.07;100393.16;8716840;33;20226;-72
2021/09/24 13:27:45;;;;;;;49.17;24.10;;;;;;;15.97;74.55;100399.94;8716633;33;20176;-73
2021/09/24 13:32:49;;;;;;;42.88;21.35;;;;;;;15.90;74.11;100385.31;8716969;33;20186;-73
2021/09/24 13:37:53;;;;;;;46.28;22.75;;;;;;;15.65;74.94;100387.84;8716575;33;21610;-73
2021/09/24 13:42:56;;;;;;;44.15;23.40;;;;;;;15.59;75.75;100374.94;8716223;33;20239;-73
2021/09/24 13:48:00;;;;;;;45.53;19.90;;;;;;;15.87;74.58;100385.63;8716887;33;20199;-75
2021/09/24 13:53:08;;;;;;;45.25;23.55;;;;;;;15.78;74.51;100368.47;8716416;33;20187;-73
2021/09/24 13:58:11;;;;;;;45.35;23.60;;;;;;;15.69;74.58;100367.56;8714745;33;20227;-73
2021/09/24 14:03:15;;;;;;;44.35;25.30;;;;;;;15.95;73.70;100374.84;8700718;33;20185;-72
2021/09/24 14:08:20;;;;;;;51.55;25.20;;;;;;;15.98;74.27;100363.69;8667016;33;20233;-72
2021/09/24 14:13:23;;;;;;;52.15;25.63;;;;;;;16.05;73.33;100377.47;8658235;33;20253;-74
2021/09/24 14:18:26;;;;;;;43.63;22.63;;;;;;;16.21;73.00;100373.97;8658231;33;20200;-74
2021/09/24 14:23:31;;;;;;;46.35;23.48;;;;;;;16.71;72.12;100367.78;8658116;33;20179;-73
2021/09/24 14:28:35;;;;;;;47.50;25.25;;;;;;;16.48;72.25;100365.69;8678719;33;20764;-72
2021/09/24 14:33:38;;;;;;;48.75;25.17;;;;;;;16.56;72.55;100367.56;8686214;33;20179;-73
2021/09/24 14:38:42;;;;;;;49.28;26.33;;;;;;;16.25;73.36;100362.66;8684633;33;20198;-73
2021/09/24 14:43:46;;;;;;;41.88;24.38;;;;;;;16.49;72.78;100355.69;8691103;33;20375;-72
2021/09/24 14:48:49;;;;;;;39.00;22.23;;;;;;;16.72;71.60;100351.34;8713953;33;20195;-72
2021/09/24 14:53:53;;;;;;;41.05;23.88;;;;;;;16.63;72.05;100335.22;8714957;33;20663;-72
2021/09/24 14:58:56;;;;;;;40.93;21.57;;;;;;;17.14;70.61;100336.88;8720402;33;20437;-73
2021/09/24 15:03:59;;;;;;;36.50;20.75;;;;;;;17.31;69.00;100339.59;8720400;33;20530;-73
2021/09/24 15:09:04;;;;;;;35.97;21.90;;;;;;;17.29;69.00;100336.19;8719542;33;20194;-72
2021/09/24 15:14:07;;;;;;;38.72;19.50;;;;;;;17.17;69.62;100330.28;8719377;33;20259;-72
2021/09/24 15:19:10;;;;;;;27.85;16.52;;;;;;;16.72;69.64;100336.94;8719823;33;20229;-73
2021/09/24 15:24:15;;;;;;;29.50;17.70;;;;;;;16.92;69.61;100329.34;8719908;33;20187;-73
2021/09/24 15:29:18;;;;;;;28.95;16.80;;;;;;;16.54;70.02;100339.78;8719950;33;20237;-73
2021/09/24 15:34:21;;;;;;;30.33;18.52;;;;;;;16.38;70.25;100337.00;8686886;33;20423;-73
2021/09/24 15:39:26;;;;;;;32.25;18.63;;;;;;;16.69;69.48;100329.97;8661550;33;20286;-73
2021/09/24 15:44:29;;;;;;;26.88;15.88;;;;;;;16.48;69.41;100332.28;8661137;33;20238;-73
2021/09/24 15:49:32;;;;;;;25.70;14.27;;;;;;;16.29;69.84;100347.81;8662719;33;20184;-73
2021/09/24 15:54:36;;;;;;;25.92;16.95;;;;;;;16.38;69.49;100343.25;8660148;33;20188;-75
2021/09/24 15:59:40;;;;;;;27.52;15.57;;;;;;;16.31;69.64;100339.50;8674940;33;20157;-73
2021/09/24 16:04:44;;;;;;;25.40;16.73;;;;;;;16.39;69.27;100344.97;8662035;33;20196;-73
2021/09/24 16:09:49;;;;;;;24.35;16.02;;;;;;;16.04;70.31;100352.19;8662070;33;20195;-74
2021/09/24 16:14:52;;;;;;;22.50;15.43;;;;;;;16.29;69.75;100357.78;8660827;33;20764;-74
2021/09/24 16:19:55;;;;;;;21.30;14.50;;;;;;;16.22;70.17;100345.88;8660782;33;20548;-74
2021/09/24 16:25:00;;;;;;;25.38;16.38;;;;;;;16.31;69.79;100344.91;8659933;33;20214;-74
2021/09/24 16:30:04;;;;;;;27.48;17.63;;;;;;;16.22;70.39;100354.00;8660233;33;20167;-74
2021/09/24 16:35:10;;;;;;;27.55;17.92;;;;;;;16.28;70.02;100353.38;8660515;33;20199;-74
2021/09/24 16:40:16;;;;;;;32.30;19.60;;;;;;;16.30;70.31;100364.91;8659987;33;20440;-74
2021/09/24 16:45:19;;;;;;;31.17;18.33;;;;;;;16.09;70.90;100352.56;8659872;33;20164;-74
2021/09/24 16:50:23;;;;;;;29.63;19.15;;;;;;;16.11;70.74;100352.41;8660374;33;20177;-74
2021/09/24 16:55:29;;;;;;;30.52;19.88;;;;;;;16.17;71.10;100362.59;8661561;33;20242;-73
2021/09/24 17:00:35;;;;;;;31.20;18.25;;;;;;;16.01;71.11;100354.38;8660116;33;20267;-74
2021/09/24 17:05:38;;;;;;;31.63;21.33;;;;;;;16.23;70.47;100345.69;8658009;33;20160;-74
2021/09/24 17:10:43;;;;;;;32.88;21.05;;;;;;;16.18;70.42;100344.47;8659623;33;20191;-74
2021/09/24 17:15:46;;;;;;;35.85;23.13;;;;;;;16.12;70.55;100341.41;8658890;33;20294;-74
2021/09/24 17:20:49;;;;;;;27.23;20.17;;;;;;;16.06;70.93;100347.47;8658268;33;20708;-72
2021/09/24 17:25:54;;;;;;;24.95;15.10;;;;;;;15.89;71.30;100346.53;8658497;33;20637;-74
2021/09/24 17:30:58;;;;;;;23.50;15.70;;;;;;;15.90;71.68;100344.66;8686740;33;20664;-73
2021/09/24 17:36:01;;;;;;;26.75;17.63;;;;;;;15.79;72.00;100339.53;8714420;33;20187;-73
2021/09/24 17:41:06;;;;;;;26.98;16.75;;;;;;;15.72;71.99;100342.03;8717229;33;20443;-73
2021/09/24 17:46:09;;;;;;;23.25;15.63;;;;;;;15.60;72.17;100344.13;8717327;33;20539;-74
2021/09/24 17:51:13;;;;;;;28.00;20.13;;;;;;;15.71;72.04;100345.72;8717725;33;20191;-73
2021/09/24 17:56:17;;;;;;;29.33;19.92;;;;;;;15.59;72.27;100349.72;8717185;33;20215;-74
2021/09/24 18:01:22;;;;;;;23.17;15.20;;;;;;;15.65;72.68;100349.91;8717689;33;21584;-75
2021/09/24 18:06:26;;;;;;;20.52;14.13;;;;;;;15.84;71.80;100353.44;8717217;33;20217;-76
2021/09/24 18:11:30;;;;;;;19.05;12.38;;;;;;;15.64;72.06;100353.66;8716977;33;20187;-74
2021/09/24 18:16:33;;;;;;;19.75;10.77;;;;;;;15.76;71.83;100361.50;8712231;33;20165;-74
2021/09/24 18:21:37;;;;;;;17.40;12.27;;;;;;;15.80;71.78;100371.88;8684219;33;20172;-75
2021/09/24 18:26:41;;;;;;;16.67;10.18;;;;;;;15.77;72.05;100379.44;8712321;33;20278;-74
2021/09/24 18:31:44;;;;;;;21.55;11.45;;;;;;;15.86;71.88;100379.38;8716084;33;22105;-74
2021/09/24 18:36:47;;;;;;;20.83;10.27;;;;;;;15.80;72.17;100373.75;8716252;33;20184;-74
2021/09/24 18:41:52;;;;;;;19.00;10.27;;;;;;;15.87;71.81;100375.63;8699246;33;21097;-74
2021/09/24 18:46:55;;;;;;;17.63;12.40;;;;;;;15.84;71.93;100377.81;8658034;33;20202;-74
2021/09/24 18:51:59;;;;;;;13.93;9.13;;;;;;;15.78;72.06;100390.13;8656775;33;20176;-73
2021/09/24 18:57:04;;;;;;;12.05;9.07;;;;;;;15.54;72.57;100387.25;8657737;33;20697;-74
2021/09/24 19:02:07;;;;;;;11.75;8.93;;;;;;;15.53;72.67;100388.25;8656175;33;20750;-75
2021/09/24 19:07:11;;;;;;;16.65;9.45;;;;;;;15.38;73.06;100391.50;8657537;33;20682;-74
2021/09/24 19:12:16;;;;;;;14.48;8.93;;;;;;;15.33;73.50;100392.94;8680267;33;20144;-74
2021/09/24 19:17:19;;;;;;;15.25;10.88;;;;;;;15.40;73.16;100388.66;8713619;33;20183;-75
2021/09/24 19:22:22;;;;;;;15.02;10.68;;;;;;;15.36;73.50;100387.25;8714177;33;20626;-75
2021/09/24 19:27:27;;;;;;;22.75;14.55;;;;;;;15.17;74.20;100391.78;8714703;33;20408;-75
2021/09/24 19:32:30;;;;;;;17.48;13.15;;;;;;;15.18;74.20;100398.06;8715066;33;20183;-74
2021/09/24 19:37:33;;;;;;;15.32;11.02;;;;;;;15.08;74.59;100391.84;8715534;33;20653;-73
2021/09/24 19:42:37;;;;;;;12.85;9.77;;;;;;;15.08;74.65;100399.97;8715308;33;20187;-75
2021/09/24 19:47:40;;;;;;;22.60;20.20;;;;;;;15.04;74.57;100394.03;8718289;33;20617;-75
2021/09/24 19:52:44;;;;;;;25.23;19.40;;;;;;;14.98;75.28;100394.63;8719501;33;20195;-75
2021/09/24 19:57:49;;;;;;;17.08;12.90;;;;;;;14.90;75.11;100392.69;8717723;33;21007;-75
2021/09/24 20:02:52;;;;;;;15.82;10.57;;;;;;;14.85;75.49;100394.16;8718252;33;20243;-75
2021/09/24 20:07:55;;;;;;;15.73;10.90;;;;;;;14.76;75.82;100377.00;8719769;33;20183;-75
2021/09/24 20:13:03;;;;;;;24.45;15.93;;;;;;;14.72;76.10;100376.41;8719586;33;20433;-74
2021/09/24 20:18:06;;;;;;;18.70;12.63;;;;;;;14.70;76.19;100373.03;8719977;33;20263;-73
2021/09/24 20:23:09;;;;;;;18.33;13.27;;;;;;;14.68;76.33;100388.56;8701019;33;20183;-74
2021/09/24 20:28:14;;;;;;;19.25;11.93;;;;;;;14.57;76.61;100386.06;8690082;33;21189;-75
2021/09/24 20:33:18;;;;;;;18.75;11.57;;;;;;;14.50;77.17;100385.78;8673124;33;20268;-74
2021/09/24 20:38:22;;;;;;;18.83;11.82;;;;;;;14.57;76.95;100386.06;8661541;33;20141;-74
2021/09/24 20:43:26;;;;;;;17.42;11.38;;;;;;;14.58;76.35;100390.47;8660871;33;20176;-74
2021/09/24 20:48:29;;;;;;;17.17;11.27;;;;;;;14.61;76.15;100390.16;8660331;33;20192;-74
2021/09/24 20:53:33;;;;;;;18.13;10.02;;;;;;;14.73;75.75;100382.72;8659600;33;20666;-73
2021/09/24 20:58:37;;;;;;;18.08;11.02;;;;;;;14.59;76.46;100389.47;8660194;33;20643;-73
2021/09/24 21:03:40;;;;;;;19.42;10.43;;;;;;;14.73;75.81;100380.00;8659893;33;20192;-74
2021/09/24 21:08:44;;;;;;;17.98;10.60;;;;;;;14.45;76.78;100389.94;8660310;33;20180;-74
2021/09/24 21:13:48;;;;;;;19.08;10.40;;;;;;;14.55;76.74;100377.25;8691647;33;20240;-74
2021/09/24 21:18:51;;;;;;;18.15;10.52;;;;;;;14.65;76.50;100367.25;8717778;33;20901;-74
2021/09/24 21:23:54;;;;;;;17.25;10.35;;;;;;;14.60;76.68;100367.69;8719076;33;20178;-75
2021/09/24 21:28:59;;;;;;;17.13;11.30;;;;;;;14.46;77.31;100379.00;8674164;33;20216;-74
2021/09/24 21:34:02;;;;;;;19.30;11.02;;;;;;;14.67;76.97;100386.84;8659077;33;21452;-74
2021/09/24 21:39:05;;;;;;;18.67;10.95;;;;;;;14.57;77.05;100377.94;8659076;33;20646;-74
2021/09/24 21:44:10;;;;;;;18.60;11.32;;;;;;;14.69;77.11;100376.72;8658833;33;20213;-74
2021/09/24 21:49:13;;;;;;;17.38;10.57;;;;;;;14.82;76.63;100384.50;8659507;33;20394;-74
2021/09/24 21:54:16;;;;;;;17.52;11.05;;;;;;;14.76;76.87;100380.53;8661641;33;20226;-74
2021/09/24 21:59:20;;;;;;;16.88;10.45;;;;;;;14.72;77.21;100381.84;8657635;33;20184;-74
2021/09/24 22:04:23;;;;;;;17.77;10.48;;;;;;;14.70;77.09;100389.25;8658056;33;20129;-74
2021/09/24 22:09:26;;;;;;;19.33;11.55;;;;;;;14.50;78.27;100385.78;8658320;33;20427;-73
2021/09/24 22:21:13;;;;;;;17.95;11.35;;;;;;;14.47;78.10;100386.09;8657714;33;20204;-74
2021/09/24 22:26:16;;;;;;;19.25;10.63;;;;;;;14.56;77.92;100387.91;8657661;33;20564;-74
2021/09/24 22:31:19;;;;;;;16.40;10.88;;;;;;;14.37;79.07;100385.25;8657353;33;20145;-74
2021/09/24 22:36:25;;;;;;;20.20;10.18;;;;;;;14.25;79.43;100391.84;8660905;33;20649;-74
2021/09/24 22:41:28;;;;;;;17.55;10.98;;;;;;;14.46;78.84;100383.56;8658947;33;20239;-73
2021/09/24 22:46:33;;;;;;;16.05;11.45;;;;;;;14.31;79.39;100386.69;8656922;33;20211;-74
2021/09/24 22:51:38;;;;;;;16.20;10.02;;;;;;;14.41;79.18;100370.50;8657575;33;20795;-73
2021/09/24 22:56:59;;;;;;;16.70;10.35;;;;;;;14.47;78.67;100377.97;8656961;33;20890;-73
2021/09/24 23:02:02;;;;;;;21.05;10.88;;;;;;;14.26;79.72;100383.63;8656810;33;20192;-73
2021/09/24 23:07:07;;;;;;;17.00;10.13;;;;;;;14.25;79.73;100389.16;8657226;33;20141;-73
2021/09/24 23:12:10;;;;;;;16.55;10.75;;;;;;;14.43;79.40;100373.06;8657465;33;20203;-74
2021/09/24 23:17:13;;;;;;;18.83;10.40;;;;;;;14.48;79.12;100377.00;8658931;33;20153;-73